Time;durP1;ratioP1;P1;durP2;ratioP2;P2;SDS_P1;SDS_P2;PMS_P1;PMS_P2;Temp;Humidity;BMP_temperature;BMP_pressure;BME280_temperature;BME280_humidity;BME280_pressure;Samples;Min_cycle;Max_cycle;Signal;HPM_P1;HPM_P2
2023/06/12 04:30:25;;;;;;;6.00;3.08;;;18.40;74.80;;;;;;6051357;23;20053;31
2023/06/12 04:32:53;;;;;;;6.55;2.65;;;18.50;74.90;;;;;;4896434;29;20040;-84
2023/06/12 04:35:19;;;;;;;4.85;2.60;;;18.50;74.80;;;;;;4900046;29;20497;-85
2023/06/12 04:37:48;;;;;;;5.40;2.75;;;18.50;74.80;;;;;;4917518;29;20032;-84
2023/06/12 04:40:14;;;;;;;5.75;2.40;;;18.50;74.70;;;;;;4915479;29;20083;-85
2023/06/12 04:42:43;;;;;;;5.50;2.42;;;18.50;75.00;;;;;;4899808;29;20525;-84
2023/06/12 04:45:12;;;;;;;4.65;2.50;;;18.40;74.90;;;;;;4925898;29;20036;-82
2023/06/12 04:47:38;;;;;;;5.40;2.78;;;18.50;74.80;;;;;;4918376;29;20061;-84
2023/06/12 04:50:05;;;;;;;4.85;2.53;;;18.60;74.60;;;;;;4917083;29;20040;-83
2023/06/12 04:52:32;;;;;;;4.90;2.55;;;18.50;75.00;;;;;;4917024;29;20043;-81
2023/06/12 04:54:59;;;;;;;5.25;3.08;;;18.50;74.90;;;;;;4918257;29;20188;-82
2023/06/12 04:57:25;;;;;;;6.03;3.15;;;18.50;75.10;;;;;;4917927;29;20085;-81
2023/06/12 04:59:52;;;;;;;4.13;2.33;;;18.50;75.20;;;;;;4916776;29;20036;-81
2023/06/12 05:02:18;;;;;;;5.80;2.95;;;18.50;74.90;;;;;;4916520;29;20055;-82
2023/06/12 05:04:44;;;;;;;5.50;2.67;;;18.30;75.00;;;;;;4931432;29;20051;-83
2023/06/12 05:07:16;;;;;;;5.25;2.53;;;18.40;75.10;;;;;;4929659;29;20038;-85
2023/06/12 05:09:43;;;;;;;6.18;2.80;;;18.40;75.00;;;;;;4920396;29;20040;-83
2023/06/12 05:12:09;;;;;;;6.13;3.10;;;18.50;74.70;;;;;;4932183;29;20058;-83
2023/06/12 05:14:40;;;;;;;6.47;2.75;;;18.60;74.40;;;;;;4920304;29;20020;-86
2023/06/12 05:17:06;;;;;;;6.68;3.13;;;18.60;74.40;;;;;;4920009;29;20060;-79
2023/06/12 05:19:32;;;;;;;6.45;3.20;;;18.70;74.60;;;;;;4927382;29;20087;-79
2023/06/12 05:21:58;;;;;;;5.60;2.75;;;18.70;74.70;;;;;;4938515;29;20027;-78
2023/06/12 05:24:23;;;;;;;4.47;2.50;;;18.80;74.40;;;;;;4919615;29;20059;-80
2023/06/12 05:26:50;;;;;;;5.10;2.40;;;18.80;73.90;;;;;;4924107;29;20031;-81
2023/06/12 05:29:16;;;;;;;4.80;2.55;;;18.80;73.70;;;;;;4939014;29;20127;-80
2023/06/12 05:31:42;;;;;;;4.93;2.60;;;18.90;73.60;;;;;;4920336;29;20052;-81
2023/06/12 05:34:07;;;;;;;5.55;2.78;;;18.90;73.50;;;;;;4920741;29;20032;-82
2023/06/12 05:36:33;;;;;;;4.55;2.15;;;18.90;73.30;;;;;;4926715;29;20359;-82
2023/06/12 05:38:58;;;;;;;4.40;2.50;;;19.00;73.50;;;;;;4915912;29;20044;-80
2023/06/12 05:41:25;;;;;;;6.00;2.85;;;19.10;73.30;;;;;;4902069;29;20505;-82
2023/06/12 05:43:51;;;;;;;5.20;2.55;;;19.10;73.20;;;;;;4901951;29;20036;-82
2023/06/12 05:46:16;;;;;;;4.28;2.42;;;19.20;72.80;;;;;;4913018;29;20033;-80
2023/06/12 05:48:42;;;;;;;6.30;3.15;;;19.20;72.70;;;;;;4919761;29;20027;-79
2023/06/12 05:51:08;;;;;;;4.35;2.60;;;19.20;72.40;;;;;;4919376;29;20032;-80
2023/06/12 05:53:34;;;;;;;5.15;2.85;;;19.20;72.70;;;;;;4919667;29;20810;-83
2023/06/12 05:56:00;;;;;;;5.43;2.60;;;19.30;72.60;;;;;;4913235;29;20065;-82
2023/06/12 05:58:26;;;;;;;5.25;2.58;;;19.30;72.50;;;;;;4914106;29;20036;-83
2023/06/12 06:00:53;;;;;;;4.60;2.53;;;19.30;72.80;;;;;;4920460;29;20020;-83
2023/06/12 06:03:20;;;;;;;5.55;2.70;;;19.30;72.80;;;;;;4918554;29;20586;-82
2023/06/12 06:05:48;;;;;;;4.72;2.60;;;19.30;72.60;;;;;;4920026;29;20034;-82
2023/06/12 06:08:14;;;;;;;6.00;2.85;;;19.30;72.50;;;;;;4919400;29;20020;-83
2023/06/12 06:10:40;;;;;;;6.28;3.08;;;19.30;72.30;;;;;;4921322;29;20111;-82
2023/06/12 06:13:07;;;;;;;5.05;2.70;;;19.30;72.10;;;;;;4939271;29;20066;-83
2023/06/12 06:15:32;;;;;;;5.20;2.80;;;19.40;72.10;;;;;;4939107;29;20024;-82
2023/06/12 06:17:58;;;;;;;5.35;2.90;;;19.40;72.30;;;;;;4912656;29;20084;-83
2023/06/12 06:20:24;;;;;;;8.15;3.40;;;19.30;72.30;;;;;;4916416;29;20032;-83
2023/06/12 06:22:50;;;;;;;8.07;3.58;;;19.30;72.40;;;;;;4909364;29;20562;-83
2023/06/12 06:25:17;;;;;;;8.60;3.60;;;19.40;72.40;;;;;;4918238;29;20096;-83
2023/06/12 06:27:43;;;;;;;5.45;3.17;;;19.30;72.50;;;;;;4904282;29;20077;-83
2023/06/12 06:30:09;;;;;;;6.95;3.45;;;19.30;72.70;;;;;;4912526;29;20033;-83
2023/06/12 06:32:34;;;;;;;7.25;3.38;;;19.20;72.70;;;;;;4907968;29;20035;-83
2023/06/12 06:35:00;;;;;;;5.95;3.08;;;19.20;72.70;;;;;;4919599;29;20024;-83
2023/06/12 06:37:26;;;;;;;5.72;2.88;;;19.30;72.70;;;;;;4909431;29;20019;-83
2023/06/12 06:39:51;;;;;;;6.25;3.30;;;19.20;72.60;;;;;;4910765;29;20047;-83
2023/06/12 06:42:17;;;;;;;6.53;3.63;;;19.20;73.00;;;;;;4909857;29;20028;-83
2023/06/12 06:44:43;;;;;;;6.65;3.20;;;19.20;72.80;;;;;;4914471;29;20579;-84
2023/06/12 06:47:10;;;;;;;4.82;2.90;;;19.20;72.80;;;;;;4907549;29;20119;-79
2023/06/12 06:49:37;;;;;;;5.85;3.08;;;19.30;72.60;;;;;;4908773;29;20020;-81
2023/06/12 06:52:06;;;;;;;5.75;3.03;;;19.20;72.40;;;;;;4915893;29;20048;-81
2023/06/12 06:54:32;;;;;;;6.47;3.45;;;19.20;72.80;;;;;;4908806;29;20028;-81
2023/06/12 06:56:57;;;;;;;6.43;3.35;;;19.20;73.00;;;;;;4900294;29;20579;-81
2023/06/12 06:59:23;;;;;;;7.13;3.13;;;19.20;72.80;;;;;;4907350;29;20058;-79
2023/06/12 07:01:49;;;;;;;7.32;3.53;;;19.20;73.40;;;;;;4916681;29;20029;-79
2023/06/12 07:04:15;;;;;;;7.43;3.70;;;19.10;73.60;;;;;;4915023;29;20040;-79
2023/06/12 07:06:40;;;;;;;7.13;3.78;;;19.10;73.70;;;;;;4907654;29;20522;-80
2023/06/12 07:09:08;;;;;;;7.50;3.63;;;19.00;74.10;;;;;;4913870;29;20399;-81
2023/06/12 07:11:33;;;;;;;6.03;3.40;;;19.10;74.10;;;;;;4910334;29;20017;-78
2023/06/12 07:13:59;;;;;;;7.30;3.78;;;19.10;73.80;;;;;;4908818;29;20035;-78
2023/06/12 07:16:25;;;;;;;7.25;3.90;;;19.10;73.80;;;;;;4910535;29;20402;-79
2023/06/12 07:18:50;;;;;;;6.80;3.55;;;19.10;73.70;;;;;;4931103;29;20048;-77
2023/06/12 07:21:17;;;;;;;7.55;3.80;;;19.30;73.60;;;;;;4934986;29;20082;-78
2023/06/12 07:23:43;;;;;;;9.02;4.38;;;19.30;73.10;;;;;;4908397;29;20032;-79
2023/06/12 07:26:09;;;;;;;8.60;4.70;;;19.20;73.10;;;;;;4913534;29;20120;-79
2023/06/12 07:28:34;;;;;;;10.63;5.35;;;19.20;73.30;;;;;;4909382;29;20028;-80
2023/06/12 07:31:00;;;;;;;10.18;5.63;;;19.20;73.60;;;;;;4918085;29;20525;-84
2023/06/12 07:33:26;;;;;;;10.32;4.70;;;19.30;73.30;;;;;;4911166;29;20036;-86
2023/06/12 07:35:51;;;;;;;10.02;4.97;;;19.50;72.70;;;;;;4913398;29;20063;-88
2023/06/12 07:38:17;;;;;;;9.77;4.80;;;19.50;72.50;;;;;;4913844;29;20043;-85
2023/06/12 07:40:43;;;;;;;7.60;4.50;;;19.50;72.80;;;;;;4918639;29;20088;-80
2023/06/12 07:43:08;;;;;;;9.52;5.30;;;19.70;72.30;;;;;;4909762;29;20104;-80
2023/06/12 07:45:34;;;;;;;9.60;5.38;;;20.00;71.90;;;;;;4908209;29;20039;-81
2023/06/12 07:47:59;;;;;;;12.07;5.70;;;20.30;71.10;;;;;;4920948;29;20134;-81
2023/06/12 07:50:25;;;;;;;9.95;5.55;;;20.80;69.90;;;;;;4919992;29;20040;-78
2023/06/12 07:52:51;;;;;;;10.70;5.45;;;21.30;68.20;;;;;;4917234;29;20031;-75
2023/06/12 07:55:18;;;;;;;8.57;5.35;;;21.70;66.80;;;;;;4913948;29;20088;-76
2023/06/12 07:57:43;;;;;;;9.52;6.07;;;22.40;64.80;;;;;;4917103;29;20036;-75
2023/06/12 08:00:10;;;;;;;11.05;6.07;;;23.30;63.00;;;;;;4921649;29;20699;-76
2023/06/12 08:02:35;;;;;;;10.68;6.47;;;23.90;61.10;;;;;;4918548;29;20028;-75
2023/06/12 08:05:03;;;;;;;11.05;6.82;;;24.90;58.90;;;;;;4916802;29;20383;-75
2023/06/12 08:07:30;;;;;;;10.57;7.22;;;25.10;56.10;;;;;;4919635;29;20031;-75
2023/06/12 08:09:56;;;;;;;8.18;5.72;;;25.00;56.20;;;;;;4910221;29;20028;-75
2023/06/12 08:12:22;;;;;;;11.00;6.93;;;26.60;53.70;;;;;;4912657;29;20051;-75
2023/06/12 08:14:49;;;;;;;11.15;6.88;;;26.30;53.40;;;;;;4910598;29;20020;-75
2023/06/12 08:17:15;;;;;;;11.23;7.15;;;25.50;54.60;;;;;;4919243;29;20402;-75
2023/06/12 08:19:41;;;;;;;11.13;7.60;;;25.80;54.70;;;;;;4909919;29;20060;-77
2023/06/12 08:22:08;;;;;;;11.73;7.38;;;25.40;54.60;;;;;;4924163;29;20035;-77
2023/06/12 08:24:35;;;;;;;12.15;7.35;;;25.00;55.50;;;;;;4916641;29;20502;-77
2023/06/12 08:27:05;;;;;;;9.95;6.68;;;24.50;56.90;;;;;;4903397;29;20043;-77
2023/06/12 08:29:31;;;;;;;12.88;8.13;;;24.00;58.50;;;;;;4933422;29;20062;-77
2023/06/12 08:31:56;;;;;;;12.60;7.07;;;24.00;59.00;;;;;;4933655;29;20052;-78
2023/06/12 08:34:24;;;;;;;13.68;7.72;;;24.00;58.40;;;;;;4935070;29;20066;-76
2023/06/12 08:36:51;;;;;;;12.20;6.57;;;23.70;59.00;;;;;;4938476;29;20031;-77
2023/06/12 08:39:17;;;;;;;13.90;7.45;;;24.00;58.70;;;;;;4938101;29;20057;-77
2023/06/12 08:42:12;;;;;;;12.40;8.48;;;25.30;56.40;;;;;;4932063;29;20051;-77
2023/06/12 08:44:43;;;;;;;11.70;8.15;;;26.00;55.20;;;;;;4924673;29;20080;-77
2023/06/12 08:47:09;;;;;;;12.90;8.88;;;27.40;51.40;;;;;;4925254;29;20046;-77
2023/06/12 08:49:35;;;;;;;13.93;9.43;;;28.30;49.00;;;;;;4912147;29;20031;-77
2023/06/12 08:52:01;;;;;;;14.50;10.07;;;28.30;47.20;;;;;;4913838;29;20029;-77
2023/06/12 08:54:27;;;;;;;12.15;9.70;;;28.10;48.40;;;;;;4916907;29;20044;-77
2023/06/12 08:56:57;;;;;;;13.00;10.70;;;29.20;47.40;;;;;;4911332;29;20510;-78
2023/06/12 08:59:23;;;;;;;12.63;10.85;;;30.60;44.40;;;;;;4916107;29;20058;-78
2023/06/12 09:01:54;;;;;;;11.73;10.10;;;31.30;42.30;;;;;;4910566;29;20029;-78
2023/06/12 09:04:28;;;;;;;12.27;10.45;;;31.90;41.00;;;;;;4922051;29;20436;-78
2023/06/12 09:07:01;;;;;;;11.10;9.82;;;31.00;41.50;;;;;;4919117;29;20035;-78
2023/06/12 09:09:37;;;;;;;11.38;9.85;;;31.40;41.20;;;;;;4910489;29;20574;-78
2023/06/12 09:12:03;;;;;;;12.73;9.73;;;31.80;41.20;;;;;;4911850;29;20021;-78
2023/06/12 09:14:34;;;;;;;9.95;8.95;;;31.70;40.90;;;;;;4915216;29;20492;-78
2023/06/12 09:17:00;;;;;;;9.70;8.77;;;32.60;40.30;;;;;;4910950;29;20043;-78
2023/06/12 09:19:27;;;;;;;9.18;8.13;;;33.30;39.40;;;;;;4917623;29;20715;-78
2023/06/12 09:21:53;;;;;;;9.23;8.27;;;33.60;38.30;;;;;;4918845;29;20030;-78
2023/06/12 09:24:20;;;;;;;11.80;10.60;;;34.20;37.40;;;;;;4912951;29;20107;-78
2023/06/12 09:26:47;;;;;;;9.32;7.97;;;34.40;36.50;;;;;;4908971;29;20037;-78
2023/06/12 09:29:12;;;;;;;8.75;7.60;;;34.70;36.30;;;;;;4921557;29;20059;-78
2023/06/12 09:31:40;;;;;;;7.55;6.82;;;34.80;35.80;;;;;;4914374;29;20504;-78
2023/06/12 09:34:06;;;;;;;6.20;5.60;;;34.90;35.30;;;;;;4914463;29;20501;-78
2023/06/12 09:36:32;;;;;;;6.63;5.60;;;34.90;36.40;;;;;;4914907;29;20393;-79
2023/06/12 09:38:58;;;;;;;7.40;6.53;;;35.20;35.80;;;;;;4911146;29;20034;-78
2023/06/12 09:41:24;;;;;;;6.63;5.93;;;35.30;34.90;;;;;;4924600;29;20494;-78
2023/06/12 09:44:03;;;;;;;7.63;6.93;;;35.40;34.50;;;;;;4919492;29;20110;-78
2023/06/12 09:46:30;;;;;;;7.70;6.90;;;35.70;34.00;;;;;;4915513;29;20072;-77
2023/06/12 09:48:59;;;;;;;8.38;7.47;;;35.60;34.10;;;;;;4918234;29;20030;-78
2023/06/12 09:51:26;;;;;;;7.53;6.82;;;35.70;34.30;;;;;;4922640;29;20032;-78
2023/06/12 09:53:56;;;;;;;6.45;5.78;;;35.90;34.80;;;;;;4922439;29;20032;-78
2023/06/12 09:56:23;;;;;;;5.50;5.00;;;36.10;34.20;;;;;;4920268;29;20398;-81
2023/06/12 09:58:52;;;;;;;5.82;4.72;;;36.00;33.60;;;;;;4914885;29;20079;-82
2023/06/12 10:01:19;;;;;;;6.05;4.53;;;36.00;33.90;;;;;;4916164;29;20016;-82
2023/06/12 10:03:50;;;;;;;5.97;4.75;;;36.10;32.70;;;;;;4927124;29;20107;-82
2023/06/12 10:06:17;;;;;;;5.53;4.60;;;36.10;33.30;;;;;;4914515;29;20524;-81
2023/06/12 10:08:43;;;;;;;5.75;4.30;;;36.20;34.00;;;;;;4915083;29;20562;-81
2023/06/12 10:11:10;;;;;;;5.55;4.40;;;36.20;33.60;;;;;;4910372;29;20024;-81
2023/06/12 10:13:36;;;;;;;4.93;4.00;;;36.30;33.30;;;;;;4914603;29;20517;-81
2023/06/12 10:16:04;;;;;;;4.05;3.60;;;35.90;33.10;;;;;;4912847;29;20028;-81
2023/06/12 10:18:31;;;;;;;5.63;3.70;;;36.00;33.90;;;;;;4925451;29;20115;-81
2023/06/12 10:20:59;;;;;;;4.22;3.47;;;35.90;33.80;;;;;;4910587;29;20554;-81
2023/06/12 10:23:25;;;;;;;4.97;3.50;;;35.60;33.50;;;;;;4919841;29;20035;-81
2023/06/12 10:25:52;;;;;;;4.00;3.20;;;35.50;34.00;;;;;;4914072;29;20021;-81
2023/06/12 10:28:18;;;;;;;3.60;2.97;;;35.30;34.70;;;;;;4910263;29;20505;-81
2023/06/12 10:31:12;;;;;;;4.75;3.20;;;35.10;35.10;;;;;;4918649;29;20058;-81
2023/06/12 10:34:06;;;;;;;4.53;3.08;;;34.90;34.90;;;;;;4918700;29;20092;-81
2023/06/12 10:36:44;;;;;;;5.70;2.90;;;34.50;36.70;;;;;;4913667;29;20533;-81
2023/06/12 10:39:15;;;;;;;4.57;2.90;;;34.10;36.70;;;;;;4915687;29;20032;-81
2023/06/12 10:41:55;;;;;;;5.15;2.88;;;33.40;38.20;;;;;;4909506;29;20107;-81
2023/06/12 10:44:44;;;;;;;5.00;3.17;;;32.90;39.10;;;;;;4917622;29;20444;-81
2023/06/12 10:47:21;;;;;;;5.00;3.30;;;32.20;40.10;;;;;;4913718;29;20025;-80
2023/06/12 10:50:02;;;;;;;5.72;3.25;;;31.80;40.10;;;;;;4914140;29;20059;-81
2023/06/12 10:52:28;;;;;;;4.95;3.20;;;31.20;41.70;;;;;;4910639;29;20020;-81
2023/06/12 10:55:13;;;;;;;5.65;3.17;;;30.90;43.30;;;;;;4909123;29;20554;-80
2023/06/12 10:57:39;;;;;;;4.50;2.75;;;30.60;42.60;;;;;;4918640;29;20045;-81
2023/06/12 11:00:09;;;;;;;4.30;3.35;;;30.40;43.30;;;;;;4909012;29;20036;-80
2023/06/12 11:02:35;;;;;;;4.45;3.10;;;30.30;43.50;;;;;;4917035;29;20055;-80
2023/06/12 11:05:04;;;;;;;4.18;2.92;;;30.00;44.10;;;;;;4914649;29;20067;-81
2023/06/12 11:07:34;;;;;;;7.22;3.38;;;30.00;44.70;;;;;;4910260;29;20394;-80
2023/06/12 11:10:09;;;;;;;4.20;3.05;;;29.90;44.70;;;;;;4912135;29;20032;-80
2023/06/12 11:12:36;;;;;;;5.45;3.20;;;29.80;44.50;;;;;;4912963;29;20031;-80
2023/06/12 11:15:02;;;;;;;4.35;2.80;;;29.70;44.00;;;;;;4910145;29;20025;-81
2023/06/12 11:17:28;;;;;;;4.50;2.80;;;29.70;43.90;;;;;;4914049;29;20024;-80
2023/06/12 11:20:00;;;;;;;4.78;3.03;;;29.70;44.90;;;;;;4908733;29;20039;-80
2023/06/12 11:22:26;;;;;;;5.50;2.80;;;29.80;44.00;;;;;;4908313;29;20108;-80
2023/06/12 11:25:02;;;;;;;4.93;2.38;;;29.80;43.50;;;;;;4916221;29;20048;-80
2023/06/12 11:27:27;;;;;;;4.60;2.72;;;29.70;44.20;;;;;;4908293;29;20040;-80
2023/06/12 11:29:53;;;;;;;5.78;2.90;;;29.70;44.10;;;;;;4914249;29;20487;-80
2023/06/12 11:32:20;;;;;;;4.60;3.30;;;29.50;44.20;;;;;;4908862;29;20063;-80
2023/06/12 11:34:46;;;;;;;5.10;3.00;;;29.40;44.30;;;;;;4916084;29;20013;-80
2023/06/12 11:37:16;;;;;;;5.40;2.80;;;29.20;44.80;;;;;;4912811;29;20096;-80
2023/06/12 11:39:43;;;;;;;5.10;3.00;;;29.00;46.20;;;;;;4913392;29;20032;-80
2023/06/12 11:42:12;;;;;;;5.80;2.90;;;28.80;46.00;;;;;;4910147;29;20043;-80
2023/06/12 11:44:39;;;;;;;4.72;2.80;;;28.70;46.80;;;;;;4909350;29;20025;-80
2023/06/12 11:47:06;;;;;;;5.32;2.78;;;28.70;47.90;;;;;;4913996;29;20498;-80
2023/06/12 11:49:34;;;;;;;5.18;3.00;;;28.70;47.70;;;;;;4916315;29;20039;-80
2023/06/12 11:52:00;;;;;;;4.97;3.08;;;28.60;47.40;;;;;;4918234;29;20035;-80
2023/06/12 11:54:26;;;;;;;5.78;3.22;;;28.60;48.40;;;;;;4926645;29;20031;-80
2023/06/12 11:56:52;;;;;;;5.15;3.00;;;28.60;48.30;;;;;;4928142;29;20043;-80
2023/06/12 11:59:20;;;;;;;4.70;2.70;;;28.50;48.50;;;;;;4919064;29;20091;-80
2023/06/12 12:01:48;;;;;;;5.28;3.30;;;28.50;50.00;;;;;;4923893;29;20065;-80
2023/06/12 12:04:17;;;;;;;4.63;2.90;;;28.50;49.30;;;;;;4921495;29;20028;-80
2023/06/12 12:06:47;;;;;;;5.18;3.22;;;28.30;48.80;;;;;;4923974;29;20132;-80
2023/06/12 12:09:14;;;;;;;5.55;2.90;;;28.30;48.70;;;;;;4922902;29;20032;-80
2023/06/12 12:11:39;;;;;;;5.70;2.80;;;28.30;49.00;;;;;;4922961;29;20038;-80
2023/06/12 12:14:05;;;;;;;4.68;2.60;;;28.20;49.20;;;;;;4924609;29;20561;-80
2023/06/12 12:16:38;;;;;;;4.85;2.75;;;28.30;48.50;;;;;;4922993;29;20024;-80
2023/06/12 12:19:27;;;;;;;4.25;2.67;;;28.20;49.10;;;;;;4901493;29;20032;-80
2023/06/12 12:21:54;;;;;;;4.72;2.80;;;28.20;49.30;;;;;;4921440;29;20399;-80
2023/06/12 12:24:20;;;;;;;5.50;2.65;;;28.20;48.70;;;;;;4922794;29;20024;-80
2023/06/12 12:26:51;;;;;;;6.53;2.70;;;28.20;48.20;;;;;;4921768;29;20039;-80
2023/06/12 12:29:17;;;;;;;3.97;2.40;;;28.10;48.60;;;;;;4922689;29;20074;-80
2023/06/12 12:31:43;;;;;;;6.40;2.78;;;28.00;48.90;;;;;;4922589;29;20153;-80
2023/06/12 12:34:09;;;;;;;4.63;2.95;;;28.10;49.20;;;;;;4922657;29;20028;-80
2023/06/12 12:36:36;;;;;;;5.50;2.88;;;28.00;49.00;;;;;;4920940;29;20509;-81
2023/06/12 12:39:06;;;;;;;3.92;2.50;;;28.00;49.30;;;;;;4922215;29;20036;-80
2023/06/12 12:41:32;;;;;;;5.78;2.80;;;28.10;49.60;;;;;;4923785;29;20099;-81
2023/06/12 12:43:57;;;;;;;4.40;2.50;;;28.10;49.60;;;;;;4921880;29;20467;-80
2023/06/12 12:46:25;;;;;;;6.63;3.20;;;27.90;48.70;;;;;;4923071;29;20032;-80
2023/06/12 12:48:51;;;;;;;6.22;3.17;;;27.90;48.70;;;;;;4923093;29;20024;-80
2023/06/12 12:51:17;;;;;;;5.47;2.85;;;27.90;49.40;;;;;;4922428;29;20092;-80
2023/06/12 12:53:43;;;;;;;4.10;2.75;;;27.90;50.90;;;;;;4919407;29;20029;-80
2023/06/12 12:56:09;;;;;;;7.13;2.63;;;28.00;50.50;;;;;;4923942;29;20031;-81
2023/06/12 12:58:36;;;;;;;4.55;2.90;;;28.00;49.60;;;;;;4924326;29;20031;-82
2023/06/12 13:01:03;;;;;;;5.10;2.50;;;28.00;47.90;;;;;;4916067;29;20031;-77
2023/06/12 13:03:38;;;;;;;5.97;2.90;;;28.00;50.00;;;;;;4904267;29;20024;-87
2023/06/12 13:06:05;;;;;;;5.75;2.40;;;28.10;50.60;;;;;;4895376;29;20064;-80
2023/06/12 13:08:31;;;;;;;3.83;2.40;;;28.10;50.80;;;;;;4929200;29;20023;-81
2023/06/12 13:10:58;;;;;;;5.32;2.40;;;28.10;51.70;;;;;;4934047;29;20027;-80
2023/06/12 13:13:24;;;;;;;5.70;2.42;;;28.00;49.70;;;;;;4932408;29;20027;-81
2023/06/12 13:15:50;;;;;;;4.68;2.58;;;28.10;50.50;;;;;;4933974;29;20028;-82
2023/06/12 13:18:17;;;;;;;4.32;2.85;;;28.20;51.40;;;;;;4929804;29;20036;-80
2023/06/12 13:20:43;;;;;;;4.43;2.80;;;28.10;49.60;;;;;;4934397;29;20115;-81
2023/06/12 13:23:09;;;;;;;4.47;2.65;;;28.10;51.10;;;;;;4928562;29;20081;-81
2023/06/12 13:25:35;;;;;;;5.68;3.00;;;28.10;51.20;;;;;;4931792;29;20024;-81
2023/06/12 13:28:00;;;;;;;4.55;2.67;;;28.20;50.50;;;;;;4930433;29;20071;-80
2023/06/12 13:30:27;;;;;;;4.93;2.60;;;28.10;49.30;;;;;;4933430;29;20986;-80
2023/06/12 13:32:52;;;;;;;5.20;3.00;;;27.90;49.20;;;;;;4929451;29;20612;-80
2023/06/12 13:35:18;;;;;;;4.85;2.88;;;27.50;51.00;;;;;;4930467;29;20030;-80
2023/06/12 13:37:43;;;;;;;4.53;2.90;;;27.70;51.40;;;;;;4934131;29;20043;-80
2023/06/12 13:40:12;;;;;;;4.75;2.35;;;27.80;50.60;;;;;;4932100;29;20020;-80
2023/06/12 13:42:39;;;;;;;5.47;2.75;;;28.10;50.80;;;;;;4932381;29;20059;-80
2023/06/12 13:45:05;;;;;;;6.07;2.90;;;28.10;50.90;;;;;;4933007;29;20035;-82
2023/06/12 13:47:31;;;;;;;4.13;2.40;;;28.10;50.80;;;;;;4932249;29;20035;-80
2023/06/12 13:49:57;;;;;;;5.88;3.28;;;27.90;49.90;;;;;;4930968;29;20080;-80
2023/06/12 13:52:23;;;;;;;5.47;2.95;;;27.80;49.90;;;;;;4933898;29;20024;-80
2023/06/12 13:54:49;;;;;;;4.95;2.65;;;27.90;49.60;;;;;;4926935;29;20132;-80
2023/06/12 13:57:14;;;;;;;4.72;2.55;;;28.00;50.10;;;;;;4932137;29;20111;-80
2023/06/12 13:59:40;;;;;;;4.97;2.88;;;28.20;50.50;;;;;;4930289;29;20039;-80
2023/06/12 14:02:07;;;;;;;5.88;2.70;;;28.30;49.30;;;;;;4933114;29;20024;-80
2023/06/12 14:04:33;;;;;;;4.57;2.78;;;28.10;49.30;;;;;;4926790;29;20070;-80
2023/06/12 14:06:59;;;;;;;6.07;2.80;;;27.90;49.50;;;;;;4933889;29;20114;-80
2023/06/12 14:09:25;;;;;;;4.90;2.85;;;27.60;50.00;;;;;;4928470;29;20020;-80
2023/06/12 14:11:53;;;;;;;4.88;2.80;;;27.60;50.40;;;;;;4932511;29;20043;-81
2023/06/12 14:14:19;;;;;;;5.00;2.90;;;27.80;50.30;;;;;;4930365;29;20360;-80
2023/06/12 14:16:45;;;;;;;5.93;2.97;;;27.80;50.80;;;;;;4933349;29;20031;-80
2023/06/12 14:19:11;;;;;;;4.55;2.75;;;27.60;51.20;;;;;;4930690;29;20079;-80
2023/06/12 14:21:37;;;;;;;6.43;2.83;;;27.50;50.70;;;;;;4933707;29;20390;-80
2023/06/12 14:24:03;;;;;;;4.65;2.80;;;27.40;51.40;;;;;;4923753;29;20042;-80
2023/06/12 14:26:30;;;;;;;5.95;3.15;;;27.60;51.50;;;;;;4933252;29;20038;-80
2023/06/12 14:28:56;;;;;;;4.78;2.72;;;27.60;51.50;;;;;;4931132;29;20070;-80
2023/06/12 14:31:22;;;;;;;5.60;2.83;;;27.50;50.60;;;;;;4931293;29;20039;-80
2023/06/12 14:33:47;;;;;;;4.40;2.50;;;27.50;51.00;;;;;;4920030;29;20035;-80
2023/06/12 14:36:13;;;;;;;4.13;2.88;;;27.30;51.10;;;;;;4922828;29;20486;-80
2023/06/12 14:38:39;;;;;;;6.15;3.13;;;27.20;51.50;;;;;;4922834;29;20036;-80
2023/06/12 14:41:05;;;;;;;5.03;2.78;;;27.20;52.20;;;;;;4923650;29;20102;-80
2023/06/12 14:43:30;;;;;;;6.70;3.13;;;27.20;52.20;;;;;;4920246;29;20023;-80
2023/06/12 14:45:56;;;;;;;5.53;2.58;;;27.30;51.90;;;;;;4927108;29;20046;-81
2023/06/12 14:48:22;;;;;;;4.82;2.80;;;27.50;51.60;;;;;;4917250;29;20032;-80
2023/06/12 14:50:48;;;;;;;4.88;3.15;;;27.50;51.70;;;;;;4916248;29;20084;-81
2023/06/12 14:53:13;;;;;;;6.55;3.35;;;27.40;52.00;;;;;;4919209;29;20569;-80
2023/06/12 14:55:42;;;;;;;6.10;2.95;;;27.40;51.60;;;;;;4923736;29;20103;-81
2023/06/12 14:58:09;;;;;;;4.90;3.33;;;27.60;52.10;;;;;;4914617;29;20028;-80
2023/06/12 15:00:35;;;;;;;6.05;3.10;;;27.60;51.80;;;;;;4920291;29;20036;-81
2023/06/12 15:03:00;;;;;;;6.85;3.65;;;27.70;51.90;;;;;;4920167;29;20452;-80
2023/06/12 15:05:26;;;;;;;6.18;3.50;;;27.80;52.50;;;;;;4917629;29;20087;-80
2023/06/12 15:07:52;;;;;;;6.63;3.70;;;27.90;52.00;;;;;;4921154;29;20044;-80
2023/06/12 15:10:17;;;;;;;6.57;3.65;;;28.00;51.80;;;;;;4922840;29;20035;-81
2023/06/12 15:12:43;;;;;;;6.65;3.65;;;28.10;52.40;;;;;;4923512;29;20471;-79
2023/06/12 15:15:09;;;;;;;5.15;3.40;;;28.00;51.10;;;;;;4923846;29;20103;-79
2023/06/12 15:17:35;;;;;;;5.90;3.22;;;28.00;51.80;;;;;;4904685;29;20028;-81
2023/06/12 15:20:00;;;;;;;7.25;3.83;;;28.00;51.60;;;;;;4914928;29;20111;-77
2023/06/12 15:22:26;;;;;;;7.32;3.75;;;28.00;51.70;;;;;;4917405;29;20414;-77
2023/06/12 15:24:51;;;;;;;5.03;3.38;;;28.10;50.90;;;;;;4914550;29;20091;-77
2023/06/12 15:27:17;;;;;;;6.40;3.13;;;28.10;51.60;;;;;;4917444;29;20104;-77
2023/06/12 15:29:43;;;;;;;6.40;3.42;;;28.00;50.90;;;;;;4913267;29;20036;-77
2023/06/12 15:32:09;;;;;;;6.10;3.58;;;28.00;51.30;;;;;;4912437;29;20048;-78
2023/06/12 15:34:34;;;;;;;8.35;3.53;;;27.90;51.60;;;;;;4914630;29;20032;-77
2023/06/12 15:37:00;;;;;;;6.30;3.80;;;27.80;51.10;;;;;;4915866;29;20040;-78
2023/06/12 15:39:26;;;;;;;8.25;3.92;;;27.80;51.90;;;;;;4916406;29;20043;-78
2023/06/12 15:41:51;;;;;;;5.75;3.60;;;27.70;51.70;;;;;;4915652;29;20522;-77
2023/06/12 15:44:17;;;;;;;7.20;3.80;;;27.70;51.90;;;;;;4915947;29;20509;-77
2023/06/12 15:46:43;;;;;;;7.63;3.50;;;27.70;51.90;;;;;;4898757;29;20060;-78
2023/06/12 15:49:09;;;;;;;7.85;3.88;;;27.70;51.80;;;;;;4916192;29;20144;-77
2023/06/12 15:51:35;;;;;;;7.43;3.50;;;27.70;51.60;;;;;;4916053;29;20063;-77
2023/06/12 15:54:00;;;;;;;6.50;3.42;;;27.70;51.50;;;;;;4917732;29;20040;-78
2023/06/12 15:56:26;;;;;;;8.23;3.40;;;27.70;51.70;;;;;;4916375;29;20044;-77
2023/06/12 15:58:53;;;;;;;5.75;3.65;;;27.60;51.80;;;;;;4916328;29;20118;-77
2023/06/12 16:01:19;;;;;;;7.32;3.42;;;27.80;52.40;;;;;;4916507;29;20047;-77
2023/06/12 16:03:44;;;;;;;5.30;3.58;;;27.80;51.30;;;;;;4917052;29;20028;-78
2023/06/12 16:06:11;;;;;;;8.07;3.70;;;27.80;51.40;;;;;;4917293;29;20038;-78
2023/06/12 16:08:37;;;;;;;7.22;3.50;;;27.80;51.20;;;;;;4917480;29;20035;-78
2023/06/12 16:11:03;;;;;;;6.07;3.55;;;27.80;51.30;;;;;;4916140;29;20028;-78
2023/06/12 16:13:29;;;;;;;6.15;3.42;;;27.80;51.00;;;;;;4917166;29;20116;-77
2023/06/12 16:15:54;;;;;;;6.60;3.42;;;27.80;50.60;;;;;;4918251;29;20017;-78
2023/06/12 16:18:20;;;;;;;5.55;3.58;;;27.90;51.30;;;;;;4918420;29;20027;-77
2023/06/12 16:20:46;;;;;;;6.55;3.30;;;28.00;50.80;;;;;;4915127;29;20904;-78
2023/06/12 16:23:12;;;;;;;6.45;3.40;;;27.80;49.50;;;;;;4917850;29;20399;-79
2023/06/12 16:25:39;;;;;;;5.57;3.33;;;27.80;50.00;;;;;;4918165;29;20028;-85
2023/06/12 16:28:05;;;;;;;6.00;3.25;;;27.80;50.30;;;;;;4917160;29;20036;-80
2023/06/12 16:30:31;;;;;;;5.88;3.60;;;27.80;50.70;;;;;;4909472;29;20048;-81
2023/06/12 16:33:00;;;;;;;5.82;3.20;;;27.90;51.50;;;;;;4897792;29;20044;-83
2023/06/12 16:35:26;;;;;;;5.07;3.45;;;27.90;50.50;;;;;;4919453;29;20059;-84
2023/06/12 16:37:52;;;;;;;5.72;3.35;;;27.90;50.40;;;;;;4920631;29;20032;-81
2023/06/12 16:40:17;;;;;;;5.80;3.47;;;27.90;50.20;;;;;;4921214;29;20103;-83
2023/06/12 16:42:44;;;;;;;5.43;3.38;;;27.80;49.80;;;;;;4904767;29;20060;-85
2023/06/12 16:45:09;;;;;;;5.75;3.38;;;27.70;49.80;;;;;;4904309;29;20088;-86
2023/06/12 16:47:36;;;;;;;5.65;3.38;;;27.60;50.60;;;;;;4908655;29;20045;-81
2023/06/12 16:50:01;;;;;;;6.20;3.70;;;27.40;51.30;;;;;;4903850;29;20032;-82
2023/06/12 16:52:27;;;;;;;5.97;3.78;;;27.30;51.60;;;;;;4916505;29;20035;-82
2023/06/12 16:54:54;;;;;;;7.43;3.80;;;27.20;51.20;;;;;;4915664;29;20028;-81
2023/06/12 16:57:20;;;;;;;6.03;3.45;;;27.10;51.60;;;;;;4920072;29;20036;-80
2023/06/12 16:59:47;;;;;;;5.15;3.50;;;27.10;52.40;;;;;;4915363;29;20036;-81
2023/06/12 17:02:17;;;;;;;5.70;3.53;;;27.10;52.20;;;;;;4902207;29;20040;-81
2023/06/12 17:04:43;;;;;;;5.90;3.70;;;27.10;51.60;;;;;;4911122;29;20033;-82
2023/06/12 17:07:09;;;;;;;7.05;3.55;;;27.10;51.70;;;;;;4917249;29;20099;-81
2023/06/12 17:09:34;;;;;;;5.63;3.45;;;27.10;52.00;;;;;;4902961;29;20024;-81
2023/06/12 17:12:00;;;;;;;6.05;3.45;;;27.10;52.00;;;;;;4921810;29;20028;-81
2023/06/12 17:14:28;;;;;;;7.32;3.70;;;27.00;52.20;;;;;;4919086;29;20403;-81